createdAt,value
2019-02-28T00:00:11.283Z,955.49
2019-02-28T00:01:12.769Z,955.5
2019-02-28T00:02:11.261Z,955.48
2019-02-28T00:03:11.243Z,955.42
2019-02-28T00:04:11.229Z,955.49
2019-02-28T00:05:11.215Z,955.45
2019-02-28T00:06:12.535Z,955.49
2019-02-28T00:07:11.188Z,955.51
2019-02-28T00:08:11.174Z,955.44
2019-02-28T00:09:11.160Z,955.51
2019-02-28T00:10:11.149Z,955.45
2019-02-28T00:11:11.134Z,955.44
2019-02-28T00:12:13.503Z,955.45
2019-02-28T00:13:11.107Z,955.43
2019-02-28T00:14:11.093Z,955.43
2019-02-28T00:15:11.079Z,955.4
2019-02-28T00:16:11.065Z,955.37
2019-02-28T00:17:11.053Z,955.38
2019-02-28T00:18:11.038Z,955.37
2019-02-28T00:19:11.030Z,955.34
2019-02-28T00:20:11.011Z,955.32
2019-02-28T00:21:10.998Z,955.3
2019-02-28T00:22:11.309Z,955.31
2019-02-28T00:23:10.971Z,955.3
2019-02-28T00:24:10.958Z,955.29
2019-02-28T00:25:10.945Z,955.31
2019-02-28T00:26:11.548Z,955.27
2019-02-28T00:27:10.917Z,955.3
2019-02-28T00:28:10.904Z,955.26
2019-02-28T00:29:10.890Z,955.23
2019-02-28T00:30:10.875Z,955.24
2019-02-28T00:31:14.155Z,955.21
2019-02-28T00:32:10.849Z,955.22
2019-02-28T00:33:10.837Z,955.21
2019-02-28T00:34:10.821Z,955.2
2019-02-28T00:35:13.340Z,955.21
2019-02-28T00:36:10.795Z,955.16
2019-02-28T00:37:10.786Z,955.18
2019-02-28T00:38:10.768Z,955.12
2019-02-28T00:39:10.754Z,955.11
2019-02-28T00:40:10.743Z,955.11
2019-02-28T00:41:10.729Z,955.06
2019-02-28T00:42:10.713Z,955.06
2019-02-28T00:43:10.700Z,954.98
2019-02-28T00:44:10.689Z,954.99
2019-02-28T00:45:10.673Z,954.95
2019-02-28T00:46:11.008Z,954.94
2019-02-28T00:47:10.647Z,954.92
2019-02-28T00:48:10.637Z,954.97
2019-02-28T00:49:10.631Z,954.88
2019-02-28T00:50:10.610Z,954.85
2019-02-28T00:51:10.592Z,954.89
2019-02-28T00:52:10.579Z,954.89
2019-02-28T00:53:10.564Z,954.84
2019-02-28T00:54:10.556Z,954.83
2019-02-28T00:55:10.538Z,954.89
2019-02-28T00:56:10.523Z,954.84
2019-02-28T00:57:10.510Z,954.77
2019-02-28T00:58:10.498Z,954.73
2019-02-28T00:59:10.489Z,954.74
2019-02-28T01:00:10.472Z,954.76
2019-02-28T01:01:11.449Z,954.71
2019-02-28T01:02:10.445Z,954.71
2019-02-28T01:03:10.430Z,954.68
2019-02-28T01:04:10.421Z,954.7
2019-02-28T01:05:10.404Z,954.72
2019-02-28T01:06:10.650Z,954.67
2019-02-28T01:07:10.377Z,954.67
2019-02-28T01:08:10.374Z,954.64
2019-02-28T01:09:10.349Z,954.64
2019-02-28T01:10:10.335Z,954.64
2019-02-28T01:11:13.187Z,954.64
2019-02-28T01:12:10.309Z,954.6
2019-02-28T01:13:10.296Z,954.6
2019-02-28T01:14:10.282Z,954.51
2019-02-28T01:15:10.759Z,954.44
2019-02-28T01:16:10.255Z,954.46
2019-02-28T01:17:10.242Z,954.5
2019-02-28T01:18:10.227Z,954.4
2019-02-28T01:19:10.307Z,954.43
2019-02-28T01:20:14.724Z,954.41
2019-02-28T01:21:10.186Z,954.4
2019-02-28T01:22:10.178Z,954.36
2019-02-28T01:23:10.160Z,954.36
2019-02-28T01:24:10.146Z,954.31
2019-02-28T01:25:10.132Z,954.28
2019-02-28T01:26:11.697Z,954.22
2019-02-28T01:27:10.105Z,954.2
2019-02-28T01:28:10.092Z,954.21
2019-02-28T01:29:10.076Z,954.16
2019-02-28T01:30:10.063Z,954.18
2019-02-28T01:31:11.547Z,954.14
2019-02-28T01:32:10.036Z,954.1
2019-02-28T01:33:10.023Z,954.11
2019-02-28T01:34:10.009Z,954.11
2019-02-28T01:35:10.000Z,954.05
2019-02-28T01:36:12.160Z,954.06
2019-02-28T01:37:09.967Z,954.04
2019-02-28T01:38:09.954Z,954.11
2019-02-28T01:39:09.939Z,954.07
2019-02-28T01:40:09.925Z,954.11
2019-02-28T01:41:11.149Z,954.09
2019-02-28T01:42:09.898Z,954.04
2019-02-28T01:43:09.882Z,953.98
2019-02-28T01:44:09.870Z,953.98
2019-02-28T01:45:10.975Z,953.94
2019-02-28T01:46:09.843Z,953.99
2019-02-28T01:47:09.828Z,953.92
2019-02-28T01:48:09.814Z,954.02
2019-02-28T01:49:09.802Z,954.02
2019-02-28T01:50:09.788Z,954
2019-02-28T01:51:09.773Z,953.94
2019-02-28T01:52:10.578Z,953.99
2019-02-28T01:53:09.745Z,953.94
2019-02-28T01:54:09.731Z,954
2019-02-28T01:55:09.717Z,953.97
2019-02-28T01:56:09.703Z,953.94
2019-02-28T01:57:10.047Z,953.91
2019-02-28T01:58:09.676Z,953.85
2019-02-28T01:59:09.661Z,953.87
2019-02-28T02:00:09.649Z,953.83
2019-02-28T02:01:09.689Z,953.84
2019-02-28T02:02:09.620Z,953.89
2019-02-28T02:03:10.175Z,953.85
2019-02-28T02:04:12.500Z,953.89
2019-02-28T02:05:09.579Z,953.86
2019-02-28T02:06:09.565Z,953.91
2019-02-28T02:07:09.554Z,953.9
2019-02-28T02:08:09.539Z,953.92
2019-02-28T02:09:10.966Z,953.85
2019-02-28T02:10:09.510Z,953.81
2019-02-28T02:11:09.495Z,953.82
2019-02-28T02:12:09.483Z,953.74
2019-02-28T02:13:09.469Z,953.69
2019-02-28T02:14:10.955Z,953.69
2019-02-28T02:15:09.442Z,953.72
2019-02-28T02:16:09.426Z,953.58
2019-02-28T02:17:09.412Z,953.63
2019-02-28T02:18:10.083Z,953.56
2019-02-28T02:19:09.386Z,953.54
2019-02-28T02:20:09.375Z,953.52
2019-02-28T02:21:09.359Z,953.58
2019-02-28T02:22:10.099Z,953.48
2019-02-28T02:23:09.330Z,953.49
2019-02-28T02:24:09.316Z,953.46
2019-02-28T02:25:09.303Z,953.43
2019-02-28T02:26:11.216Z,953.39
2019-02-28T02:27:09.276Z,953.41
2019-02-28T02:28:09.262Z,953.42
2019-02-28T02:29:09.248Z,953.39
2019-02-28T02:30:15.024Z,953.34
2019-02-28T02:31:09.241Z,953.38
2019-02-28T02:32:09.212Z,953.34
2019-02-28T02:33:13.479Z,953.32
2019-02-28T02:34:09.182Z,953.27
2019-02-28T02:35:09.175Z,953.3
2019-02-28T02:36:09.154Z,953.28
2019-02-28T02:37:09.142Z,953.24
2019-02-28T02:38:09.129Z,953.26
2019-02-28T02:39:09.120Z,953.21
2019-02-28T02:40:09.099Z,953.22
2019-02-28T02:41:09.099Z,953.25
2019-02-28T02:42:11.271Z,953.23
2019-02-28T02:43:09.059Z,953.26
2019-02-28T02:44:09.046Z,953.22
2019-02-28T02:45:09.032Z,953.26
2019-02-28T02:46:09.020Z,953.21
2019-02-28T02:47:09.005Z,953.2
2019-02-28T02:48:08.992Z,953.16
2019-02-28T02:49:08.978Z,953.12
2019-02-28T02:50:08.964Z,953.1
2019-02-28T02:51:10.979Z,953.07
2019-02-28T02:52:08.939Z,953.11
2019-02-28T02:53:08.923Z,953.06
2019-02-28T02:54:08.910Z,953.02
2019-02-28T02:55:08.897Z,953.01
2019-02-28T02:56:08.887Z,953.02
2019-02-28T02:57:08.873Z,952.97
2019-02-28T02:58:08.859Z,952.98
2019-02-28T02:59:08.844Z,952.95
2019-02-28T03:00:13.245Z,952.95
2019-02-28T03:01:08.817Z,952.94
2019-02-28T03:02:08.801Z,952.92
2019-02-28T03:03:08.792Z,952.95
2019-02-28T03:04:08.774Z,952.9
2019-02-28T03:05:08.761Z,952.92
2019-02-28T03:06:13.490Z,952.96
2019-02-28T03:07:08.734Z,952.97
2019-02-28T03:08:08.721Z,952.99
2019-02-28T03:09:09.853Z,953
2019-02-28T03:10:08.697Z,952.92
2019-02-28T03:11:08.681Z,952.93
2019-02-28T03:12:08.667Z,952.99
2019-02-28T03:13:08.653Z,952.96
2019-02-28T03:14:08.638Z,952.99
2019-02-28T03:15:08.628Z,952.94
2019-02-28T03:16:08.612Z,952.92
2019-02-28T03:17:11.387Z,952.9
2019-02-28T03:18:08.590Z,952.91
2019-02-28T03:19:08.573Z,952.89
2019-02-28T03:20:08.857Z,952.87
2019-02-28T03:21:08.551Z,952.87
2019-02-28T03:22:08.530Z,952.82
2019-02-28T03:23:08.520Z,952.79
2019-02-28T03:24:14.546Z,952.81
2019-02-28T03:25:08.491Z,952.82
2019-02-28T03:26:08.483Z,952.78
2019-02-28T03:27:08.464Z,952.73
2019-02-28T03:28:08.452Z,952.75
2019-02-28T03:29:08.968Z,952.71
2019-02-28T03:30:08.423Z,952.64
2019-02-28T03:31:14.007Z,952.65
2019-02-28T03:32:08.398Z,952.65
2019-02-28T03:33:08.385Z,952.65
2019-02-28T03:34:12.684Z,952.59
2019-02-28T03:35:08.370Z,952.58
2019-02-28T03:36:08.342Z,952.53
2019-02-28T03:37:08.329Z,952.57
2019-02-28T03:38:11.223Z,952.58
2019-02-28T03:39:08.304Z,952.55
2019-02-28T03:40:08.288Z,952.56
2019-02-28T03:41:16.005Z,952.58
2019-02-28T03:42:08.261Z,952.57
2019-02-28T03:43:08.248Z,952.49
2019-02-28T03:44:08.235Z,952.55
2019-02-28T03:45:08.220Z,952.52
2019-02-28T03:46:10.116Z,952.49
2019-02-28T03:47:08.200Z,952.5
2019-02-28T03:48:08.178Z,952.47
2019-02-28T03:49:11.380Z,952.43
2019-02-28T03:50:08.152Z,952.44
2019-02-28T03:51:08.140Z,952.48
2019-02-28T03:52:08.126Z,952.46
2019-02-28T03:53:08.111Z,952.44
2019-02-28T03:54:08.103Z,952.49
2019-02-28T03:55:08.086Z,952.37
2019-02-28T03:56:08.072Z,952.38
2019-02-28T03:57:08.058Z,952.37
2019-02-28T03:58:08.060Z,952.34
2019-02-28T03:59:08.030Z,952.33
2019-02-28T04:00:08.017Z,952.41
2019-02-28T04:01:09.289Z,952.44
2019-02-28T04:02:07.992Z,952.43
2019-02-28T04:03:07.989Z,952.41
2019-02-28T04:04:12.098Z,952.35
2019-02-28T04:05:07.985Z,952.33
2019-02-28T04:06:07.937Z,952.38
2019-02-28T04:07:07.923Z,952.4
2019-02-28T04:08:07.908Z,952.38
2019-02-28T04:09:08.975Z,952.39
2019-02-28T04:10:07.879Z,952.36
2019-02-28T04:11:07.869Z,952.41
2019-02-28T04:12:09.024Z,952.39
2019-02-28T04:13:07.840Z,952.38
2019-02-28T04:14:07.827Z,952.42
2019-02-28T04:15:10.017Z,952.43
2019-02-28T04:16:09.347Z,952.43
2019-02-28T04:17:07.786Z,952.38
2019-02-28T04:18:08.585Z,952.4
2019-02-28T04:19:07.762Z,952.38
2019-02-28T04:20:07.748Z,952.35
2019-02-28T04:21:10.125Z,952.33
2019-02-28T04:22:07.720Z,952.33
2019-02-28T04:23:07.705Z,952.35
2019-02-28T04:24:12.361Z,952.38
2019-02-28T04:25:07.689Z,952.38
2019-02-28T04:26:07.669Z,952.34
2019-02-28T04:27:07.898Z,952.38
2019-02-28T04:28:07.634Z,952.36
2019-02-28T04:29:07.624Z,952.33
2019-02-28T04:30:08.349Z,952.33
2019-02-28T04:31:07.595Z,952.4
2019-02-28T04:32:07.581Z,952.37
2019-02-28T04:33:07.581Z,952.38
2019-02-28T04:34:12.871Z,952.33
2019-02-28T04:35:07.546Z,952.35
2019-02-28T04:36:07.533Z,952.26
2019-02-28T04:37:08.513Z,952.25
2019-02-28T04:38:07.504Z,952.29
2019-02-28T04:39:07.485Z,952.28
2019-02-28T04:40:07.485Z,952.19
2019-02-28T04:41:07.457Z,952.24
2019-02-28T04:42:07.443Z,952.22
2019-02-28T04:43:10.045Z,952.21
2019-02-28T04:44:07.417Z,952.23
2019-02-28T04:45:07.401Z,952.19
2019-02-28T04:46:07.387Z,952.16
2019-02-28T04:47:07.601Z,952.09
2019-02-28T04:48:07.360Z,952.14
2019-02-28T04:49:07.347Z,952.09
2019-02-28T04:50:07.332Z,952.12
2019-02-28T04:51:07.318Z,952.12
2019-02-28T04:52:07.309Z,952.1
2019-02-28T04:53:07.289Z,952.12
2019-02-28T04:54:07.276Z,952.1
2019-02-28T04:55:07.262Z,952.1
2019-02-28T04:56:10.977Z,952.05
2019-02-28T04:57:07.233Z,952.02
2019-02-28T04:58:07.221Z,952.08
2019-02-28T04:59:07.207Z,952.02
2019-02-28T05:00:07.193Z,952.04
2019-02-28T05:01:09.104Z,952.09
2019-02-28T05:02:07.164Z,952.04
2019-02-28T05:03:07.150Z,951.96
2019-02-28T05:04:07.135Z,951.97
2019-02-28T05:05:11.805Z,951.94
2019-02-28T05:06:07.108Z,951.93
2019-02-28T05:07:07.094Z,951.92
2019-02-28T05:08:07.079Z,951.9
2019-02-28T05:09:07.066Z,951.87
2019-02-28T05:10:07.051Z,951.9
2019-02-28T05:11:07.037Z,951.86
2019-02-28T05:12:07.023Z,951.87
2019-02-28T05:13:07.009Z,951.82
2019-02-28T05:14:06.995Z,951.87
2019-02-28T05:15:06.981Z,951.81
2019-02-28T05:16:09.273Z,951.79
2019-02-28T05:17:06.953Z,951.77
2019-02-28T05:18:06.939Z,951.78
2019-02-28T05:19:06.925Z,951.79
2019-02-28T05:20:07.263Z,951.78
2019-02-28T05:21:06.895Z,951.78
2019-02-28T05:22:06.882Z,951.76
2019-02-28T05:23:06.870Z,951.76
2019-02-28T05:24:07.652Z,951.74
2019-02-28T05:25:06.838Z,951.73
2019-02-28T05:26:06.829Z,951.78
2019-02-28T05:27:06.811Z,951.79
2019-02-28T05:28:07.535Z,951.8
2019-02-28T05:29:06.782Z,951.78
2019-02-28T05:30:06.767Z,951.8
2019-02-28T05:31:06.752Z,951.79
2019-02-28T05:32:06.738Z,951.8
2019-02-28T05:33:07.450Z,951.78
2019-02-28T05:34:06.708Z,951.83
2019-02-28T05:35:06.702Z,951.82
2019-02-28T05:36:06.682Z,951.84
2019-02-28T05:37:11.872Z,951.79
2019-02-28T05:38:06.653Z,951.8
2019-02-28T05:39:06.638Z,951.86
2019-02-28T05:40:06.924Z,951.84
2019-02-28T05:41:06.609Z,951.8
2019-02-28T05:42:06.593Z,951.77
2019-02-28T05:43:06.579Z,951.73
2019-02-28T05:44:07.242Z,951.75
2019-02-28T05:45:06.551Z,951.72
2019-02-28T05:46:06.541Z,951.72
2019-02-28T05:47:06.523Z,951.7
2019-02-28T05:48:06.509Z,951.7
2019-02-28T05:49:08.618Z,951.72
2019-02-28T05:50:06.479Z,951.7
2019-02-28T05:51:06.464Z,951.7
2019-02-28T05:52:06.458Z,951.67
2019-02-28T05:53:09.241Z,951.7
2019-02-28T05:54:06.421Z,951.66
2019-02-28T05:55:06.406Z,951.68
2019-02-28T05:56:06.390Z,951.67
2019-02-28T05:57:08.021Z,951.65
2019-02-28T05:58:06.361Z,951.66
2019-02-28T05:59:06.349Z,951.68
2019-02-28T06:00:06.332Z,951.7
2019-02-28T06:01:08.677Z,951.77
2019-02-28T06:02:06.304Z,951.73
2019-02-28T06:03:06.289Z,951.79
2019-02-28T06:04:06.274Z,951.77
2019-02-28T06:05:08.353Z,951.78
2019-02-28T06:06:07.974Z,951.76
2019-02-28T06:07:06.229Z,951.77
2019-02-28T06:08:06.214Z,951.77
2019-02-28T06:09:06.201Z,951.73
2019-02-28T06:10:06.187Z,951.74
2019-02-28T06:11:06.171Z,951.74
2019-02-28T06:12:06.547Z,951.74
2019-02-28T06:13:06.141Z,951.76
2019-02-28T06:14:06.126Z,951.71
2019-02-28T06:15:06.110Z,951.71
2019-02-28T06:16:10.981Z,951.69
2019-02-28T06:17:06.081Z,951.69
2019-02-28T06:18:06.072Z,951.71
2019-02-28T06:19:08.133Z,951.67
2019-02-28T06:20:06.037Z,951.69
2019-02-28T06:21:06.021Z,951.74
2019-02-28T06:22:06.008Z,951.67
2019-02-28T06:23:06.241Z,951.68
2019-02-28T06:24:05.978Z,951.71
2019-02-28T06:25:05.965Z,951.69
2019-02-28T06:26:05.956Z,951.74
2019-02-28T06:27:06.552Z,951.76
2019-02-28T06:28:06.167Z,951.76
2019-02-28T06:29:05.990Z,951.73
2019-02-28T06:30:08.638Z,951.74
2019-02-28T06:31:05.873Z,951.77
2019-02-28T06:32:05.858Z,951.78
2019-02-28T06:33:05.843Z,951.77
2019-02-28T06:34:08.522Z,951.8
2019-02-28T06:35:05.812Z,951.76
2019-02-28T06:36:05.797Z,951.77
2019-02-28T06:37:05.783Z,951.8
2019-02-28T06:38:06.726Z,951.76
2019-02-28T06:39:05.751Z,951.81
2019-02-28T06:40:05.739Z,951.81
2019-02-28T06:41:07.514Z,951.78
2019-02-28T06:42:05.710Z,951.83
2019-02-28T06:43:05.694Z,951.83
2019-02-28T06:44:05.678Z,951.81
2019-02-28T06:45:05.669Z,951.78
2019-02-28T06:46:08.463Z,951.77
2019-02-28T06:47:05.633Z,951.77
2019-02-28T06:48:05.619Z,951.78
2019-02-28T06:49:07.075Z,951.8
2019-02-28T06:50:05.586Z,951.76
2019-02-28T06:51:05.572Z,951.78
2019-02-28T06:52:05.558Z,951.77
2019-02-28T06:53:05.543Z,951.78
2019-02-28T06:54:07.784Z,951.79
2019-02-28T06:55:05.514Z,951.8
2019-02-28T06:56:05.503Z,951.78
2019-02-28T06:57:05.483Z,951.76
2019-02-28T06:58:05.467Z,951.73
2019-02-28T06:59:05.609Z,951.74
2019-02-28T07:00:05.438Z,951.76
2019-02-28T07:01:05.426Z,951.76
2019-02-28T07:02:05.409Z,951.72
2019-02-28T07:03:05.393Z,951.76
2019-02-28T07:04:05.379Z,951.8
2019-02-28T07:05:05.364Z,951.8
2019-02-28T07:06:05.348Z,951.76
2019-02-28T07:07:07.317Z,951.81
2019-02-28T07:08:05.318Z,951.79
2019-02-28T07:09:05.304Z,951.8
2019-02-28T07:10:06.210Z,951.8
2019-02-28T07:11:05.273Z,951.81
2019-02-28T07:12:05.258Z,951.81
2019-02-28T07:13:05.594Z,951.79
2019-02-28T07:14:05.229Z,951.79
2019-02-28T07:15:05.248Z,951.83
2019-02-28T07:16:05.209Z,951.84
2019-02-28T07:17:07.613Z,951.79
2019-02-28T07:18:05.169Z,951.83
2019-02-28T07:19:05.154Z,951.79
2019-02-28T07:20:05.143Z,951.72
2019-02-28T07:21:07.775Z,951.75
2019-02-28T07:22:05.113Z,951.79
2019-02-28T07:23:05.098Z,951.75
2019-02-28T07:24:05.082Z,951.78
2019-02-28T07:25:05.068Z,951.73
2019-02-28T07:26:05.054Z,951.79
2019-02-28T07:27:05.038Z,951.71
2019-02-28T07:28:05.024Z,951.78
2019-02-28T07:29:05.014Z,951.76
2019-02-28T07:30:04.992Z,951.73
2019-02-28T07:31:04.983Z,951.74
2019-02-28T07:32:04.964Z,951.71
2019-02-28T07:33:09.346Z,951.69
2019-02-28T07:34:04.935Z,951.73
2019-02-28T07:35:04.920Z,951.7
2019-02-28T07:36:05.559Z,951.73
2019-02-28T07:37:04.892Z,951.7
2019-02-28T07:38:04.881Z,951.74
2019-02-28T07:39:05.238Z,951.73
2019-02-28T07:40:04.848Z,951.75
2019-02-28T07:41:04.832Z,951.8
2019-02-28T07:42:04.818Z,951.79
2019-02-28T07:43:04.804Z,951.81
2019-02-28T07:44:04.791Z,951.81
2019-02-28T07:45:04.773Z,951.8
2019-02-28T07:46:07.634Z,951.83
2019-02-28T07:47:04.748Z,951.87
2019-02-28T07:48:04.731Z,951.86
2019-02-28T07:49:04.716Z,951.83
2019-02-28T07:50:07.606Z,951.86
2019-02-28T07:51:04.689Z,951.82
2019-02-28T07:52:04.675Z,951.84
2019-02-28T07:53:05.489Z,951.82
2019-02-28T07:54:04.649Z,951.75
2019-02-28T07:55:04.636Z,951.77
2019-02-28T07:56:06.821Z,951.67
2019-02-28T07:57:04.603Z,951.65
2019-02-28T07:58:04.589Z,951.58
2019-02-28T07:59:05.467Z,951.62
2019-02-28T08:00:04.567Z,951.59
2019-02-28T08:01:04.549Z,951.6
2019-02-28T08:02:04.549Z,951.66
2019-02-28T08:03:04.519Z,951.68
2019-02-28T08:04:04.504Z,951.71
2019-02-28T08:05:04.490Z,951.72
2019-02-28T08:06:05.649Z,951.71
2019-02-28T08:07:04.462Z,951.74
2019-02-28T08:08:04.449Z,951.69
2019-02-28T08:09:04.801Z,951.66
2019-02-28T08:10:04.421Z,951.75
2019-02-28T08:11:04.409Z,951.72
2019-02-28T08:12:04.393Z,951.74
2019-02-28T08:13:04.380Z,951.81
2019-02-28T08:14:04.364Z,951.81
2019-02-28T08:15:04.351Z,951.79
2019-02-28T08:16:04.337Z,951.79
2019-02-28T08:17:05.389Z,951.83
2019-02-28T08:18:05.809Z,951.83
2019-02-28T08:19:04.296Z,951.89
2019-02-28T08:20:04.283Z,951.89
2019-02-28T08:21:05.268Z,951.85
2019-02-28T08:22:04.255Z,951.87
2019-02-28T08:23:04.243Z,951.87
2019-02-28T08:24:05.331Z,951.85
2019-02-28T08:25:04.215Z,951.87
2019-02-28T08:26:04.200Z,951.88
2019-02-28T08:27:04.187Z,951.83
2019-02-28T08:28:04.175Z,951.85
2019-02-28T08:29:04.310Z,951.84
2019-02-28T08:30:04.148Z,951.78
2019-02-28T08:31:04.134Z,951.81
2019-02-28T08:32:07.790Z,951.73
2019-02-28T08:33:04.121Z,951.75
2019-02-28T08:34:04.095Z,951.7
2019-02-28T08:35:04.082Z,951.72
2019-02-28T08:36:06.648Z,951.67
2019-02-28T08:37:04.057Z,951.67
2019-02-28T08:38:04.050Z,951.65
2019-02-28T08:39:06.026Z,951.65
2019-02-28T08:40:04.017Z,951.64
2019-02-28T08:41:06.244Z,951.62
2019-02-28T08:42:04.762Z,951.64
2019-02-28T08:43:03.979Z,951.64
2019-02-28T08:44:03.966Z,951.65
2019-02-28T08:45:03.953Z,951.64
2019-02-28T08:46:09.423Z,951.58
2019-02-28T08:47:03.927Z,951.59
2019-02-28T08:48:03.913Z,951.56
2019-02-28T08:49:07.143Z,951.52
2019-02-28T08:50:03.887Z,951.54
2019-02-28T08:51:03.876Z,951.49
2019-02-28T08:52:05.557Z,951.49
2019-02-28T08:53:03.849Z,951.49
2019-02-28T08:54:03.838Z,951.48
2019-02-28T08:55:06.647Z,951.5
2019-02-28T08:56:03.813Z,951.38
2019-02-28T08:57:03.800Z,951.41
2019-02-28T08:58:05.946Z,951.4
2019-02-28T08:59:11.500Z,951.37
2019-02-28T09:00:03.765Z,951.41
2019-02-28T09:01:05.248Z,951.43
2019-02-28T09:02:03.738Z,951.42
2019-02-28T09:03:03.724Z,951.45
2019-02-28T09:04:04.952Z,951.49
2019-02-28T09:05:03.700Z,951.46
2019-02-28T09:06:05.212Z,951.51
2019-02-28T09:07:03.675Z,951.51
2019-02-28T09:08:03.663Z,951.5
2019-02-28T09:09:03.650Z,951.48
2019-02-28T09:10:06.357Z,951.49
2019-02-28T09:11:03.625Z,951.47
2019-02-28T09:12:03.614Z,951.42
2019-02-28T09:13:07.557Z,951.43
2019-02-28T09:14:03.590Z,951.43
2019-02-28T09:15:03.581Z,951.44
2019-02-28T09:16:04.849Z,951.39
2019-02-28T09:17:03.551Z,951.34
2019-02-28T09:18:03.539Z,951.33
2019-02-28T09:19:03.529Z,951.3
2019-02-28T09:20:03.519Z,951.26
2019-02-28T09:21:03.503Z,951.25
2019-02-28T09:22:03.492Z,951.27
2019-02-28T09:23:03.485Z,951.21
2019-02-28T09:24:03.468Z,951.25
2019-02-28T09:25:03.456Z,951.24
2019-02-28T09:26:03.549Z,951.24
2019-02-28T09:27:04.060Z,951.24
2019-02-28T09:28:03.419Z,951.27
2019-02-28T09:29:03.438Z,951.25
2019-02-28T09:30:03.396Z,951.27
2019-02-28T09:31:04.858Z,951.24
2019-02-28T09:32:03.387Z,951.25
2019-02-28T09:33:03.364Z,951.21
2019-02-28T09:34:03.350Z,951.2
2019-02-28T09:35:05.726Z,951.26
2019-02-28T09:36:03.327Z,951.21
2019-02-28T09:37:03.315Z,951.18
2019-02-28T09:38:06.645Z,951.2
2019-02-28T09:39:03.292Z,951.17
2019-02-28T09:40:03.282Z,951.18
2019-02-28T09:41:04.488Z,951.2
2019-02-28T09:42:03.259Z,951.24
2019-02-28T09:43:03.246Z,951.27
2019-02-28T09:44:03.235Z,951.27
2019-02-28T09:45:06.395Z,951.29
2019-02-28T09:46:03.211Z,951.33
2019-02-28T09:47:03.201Z,951.29
2019-02-28T09:48:03.191Z,951.31
2019-02-28T09:49:03.177Z,951.28
2019-02-28T09:50:03.166Z,951.31
2019-02-28T09:51:03.157Z,951.33
2019-02-28T09:52:06.239Z,951.25
2019-02-28T09:53:03.132Z,951.38
2019-02-28T09:54:03.122Z,951.28
2019-02-28T09:55:03.262Z,951.32
2019-02-28T09:56:03.102Z,951.24
2019-02-28T09:57:03.088Z,951.25
2019-02-28T09:58:03.082Z,951.25
2019-02-28T09:59:03.867Z,951.25
2019-02-28T10:00:03.055Z,951.28
2019-02-28T10:01:03.044Z,951.28
2019-02-28T10:02:07.904Z,951.26
2019-02-28T10:03:03.027Z,951.22
2019-02-28T10:04:03.013Z,951.28
2019-02-28T10:05:06.442Z,951.3
2019-02-28T10:06:02.991Z,951.32
2019-02-28T10:07:02.980Z,951.36
2019-02-28T10:08:03.191Z,951.33
2019-02-28T10:09:02.958Z,951.41
2019-02-28T10:10:02.948Z,951.38
2019-02-28T10:11:02.935Z,951.39
2019-02-28T10:12:04.580Z,951.36
2019-02-28T10:13:02.915Z,951.34
2019-02-28T10:14:02.912Z,951.26
2019-02-28T10:15:06.931Z,951.24
2019-02-28T10:16:02.885Z,951.24
2019-02-28T10:17:02.872Z,951.22
2019-02-28T10:18:04.083Z,951.25
2019-02-28T10:19:02.849Z,951.27
2019-02-28T10:20:02.840Z,951.28
2019-02-28T10:21:02.829Z,951.27
2019-02-28T10:22:02.817Z,951.27
2019-02-28T10:23:02.814Z,951.33
2019-02-28T10:24:02.797Z,951.3
2019-02-28T10:25:03.538Z,951.28
2019-02-28T10:26:02.788Z,951.31
2019-02-28T10:27:03.487Z,951.29
2019-02-28T10:28:02.932Z,951.32
2019-02-28T10:29:04.444Z,951.32
2019-02-28T10:30:02.734Z,951.27
2019-02-28T10:31:02.724Z,951.27
2019-02-28T10:32:02.716Z,951.19
2019-02-28T10:33:02.703Z,951.16
2019-02-28T10:34:02.694Z,951.18
2019-02-28T10:35:02.684Z,951.17
2019-02-28T10:36:02.674Z,951.16
2019-02-28T10:37:04.296Z,951.13
2019-02-28T10:38:02.654Z,951.14
2019-02-28T10:39:02.805Z,951.17
2019-02-28T10:40:02.632Z,951.16
2019-02-28T10:41:02.636Z,951.11
2019-02-28T10:42:04.985Z,951.11
2019-02-28T10:43:02.602Z,951.12
2019-02-28T10:44:02.591Z,951.11
2019-02-28T10:45:03.569Z,951.08
2019-02-28T10:46:02.573Z,951.13
2019-02-28T10:47:02.562Z,951.1
2019-02-28T10:48:03.837Z,951.09
2019-02-28T10:49:02.544Z,951.07
2019-02-28T10:50:02.532Z,951.04
2019-02-28T10:51:11.852Z,951.08
2019-02-28T10:52:02.511Z,951.09
2019-02-28T10:53:05.289Z,951.06
2019-02-28T10:54:02.493Z,951.06
2019-02-28T10:55:02.481Z,951.07
2019-02-28T10:56:02.471Z,951.12
2019-02-28T10:57:03.012Z,951.07
2019-02-28T10:58:02.452Z,951.07
2019-02-28T10:59:02.441Z,951.04
2019-02-28T11:00:02.433Z,951.08
2019-02-28T11:01:07.517Z,951.04
2019-02-28T11:02:02.414Z,951.08
2019-02-28T11:03:02.403Z,951.07
2019-02-28T11:04:04.453Z,951.01
2019-02-28T11:05:02.383Z,951.05
2019-02-28T11:06:02.374Z,951.07
2019-02-28T11:07:03.061Z,951.06
2019-02-28T11:08:02.354Z,951.08
2019-02-28T11:09:02.345Z,951.05
2019-02-28T11:10:02.348Z,951.08
2019-02-28T11:11:02.326Z,951.08
2019-02-28T11:12:02.317Z,951.08
2019-02-28T11:13:02.305Z,951.01
2019-02-28T11:14:03.869Z,951.07
2019-02-28T11:15:02.288Z,951.04
2019-02-28T11:16:02.279Z,951.02
2019-02-28T11:17:02.267Z,950.99
2019-02-28T11:18:02.258Z,951.05
2019-02-28T11:19:02.249Z,951.02
2019-02-28T11:20:02.240Z,951.02
2019-02-28T11:21:02.229Z,950.99
2019-02-28T11:22:04.729Z,951.03
2019-02-28T11:23:02.212Z,951.06
2019-02-28T11:24:02.205Z,951.1
2019-02-28T11:25:02.213Z,951.09
2019-02-28T11:26:02.182Z,951.1
2019-02-28T11:27:02.173Z,951.08
2019-02-28T11:28:02.169Z,951.12
2019-02-28T11:29:03.112Z,951.11
2019-02-28T11:30:02.152Z,951.13
2019-02-28T11:31:02.137Z,951.13
2019-02-28T11:32:02.128Z,951.14
2019-02-28T11:33:04.303Z,951.11
2019-02-28T11:34:02.110Z,951.12
2019-02-28T11:35:02.099Z,951.15
2019-02-28T11:36:02.093Z,951.12
2019-02-28T11:37:02.083Z,951.1
2019-02-28T11:38:02.075Z,951.13
2019-02-28T11:39:02.062Z,951.17
2019-02-28T11:40:02.053Z,951.14
2019-02-28T11:41:02.045Z,951.21
2019-02-28T11:42:02.036Z,951.18
2019-02-28T11:43:02.632Z,951.17
2019-02-28T11:44:02.019Z,951.16
2019-02-28T11:45:02.010Z,951.17
2019-02-28T11:46:03.080Z,951.13
2019-02-28T11:47:01.991Z,951.12
2019-02-28T11:48:01.982Z,951.13
2019-02-28T11:49:01.973Z,951.15
2019-02-28T11:50:04.042Z,951.16
2019-02-28T11:51:01.954Z,951.14
2019-02-28T11:52:01.946Z,951.06
2019-02-28T11:53:05.658Z,951.11
2019-02-28T11:54:01.928Z,951.09
2019-02-28T11:55:01.922Z,951.1
2019-02-28T11:56:01.911Z,951.08
2019-02-28T11:57:02.955Z,951.06
2019-02-28T11:58:01.894Z,951.13
2019-02-28T11:59:01.887Z,951.08
2019-02-28T12:00:01.875Z,951.09
2019-02-28T12:01:02.343Z,951.03
2019-02-28T12:02:01.858Z,951.02
2019-02-28T12:03:01.848Z,951
2019-02-28T12:04:01.840Z,951
2019-02-28T12:05:01.833Z,950.96
2019-02-28T12:06:01.823Z,950.91
2019-02-28T12:07:01.823Z,950.85
2019-02-28T12:08:01.803Z,950.79
2019-02-28T12:09:01.795Z,950.79
2019-02-28T12:10:01.788Z,950.8
2019-02-28T12:11:02.687Z,950.76
2019-02-28T12:12:01.769Z,950.69
2019-02-28T12:13:01.767Z,950.71
2019-02-28T12:14:01.756Z,950.65
2019-02-28T12:15:02.609Z,950.63
2019-02-28T12:16:01.733Z,950.59
2019-02-28T12:17:01.725Z,950.59
2019-02-28T12:18:04.441Z,950.61
2019-02-28T12:19:01.706Z,950.61
2019-02-28T12:20:03.741Z,950.58
2019-02-28T12:21:04.170Z,950.63
2019-02-28T12:22:01.682Z,950.66
2019-02-28T12:23:01.672Z,950.69
2019-02-28T12:24:01.663Z,950.68
2019-02-28T12:25:04.446Z,950.67
2019-02-28T12:26:01.645Z,950.68
2019-02-28T12:27:01.637Z,950.61
2019-02-28T12:28:02.571Z,950.67
2019-02-28T12:29:01.618Z,950.74
2019-02-28T12:30:01.610Z,950.8
2019-02-28T12:31:01.601Z,950.73